createdAt,value
2023-02-23T00:00:05.109Z,0.00
2023-02-23T00:01:05.089Z,0.00
2023-02-23T00:02:05.077Z,0.00
2023-02-23T00:03:05.257Z,0.00
2023-02-23T00:04:05.110Z,0.00
2023-02-23T00:05:05.046Z,0.00
2023-02-23T00:06:05.050Z,0.00
2023-02-23T00:07:05.032Z,0.00
2023-02-23T00:08:05.018Z,0.00
2023-02-23T00:09:05.010Z,0.00
2023-02-23T00:10:05.096Z,0.00
2023-02-23T00:11:04.990Z,0.00
2023-02-23T00:12:04.977Z,0.00
2023-02-23T00:13:05.113Z,0.00
2023-02-23T00:14:04.957Z,0.00
2023-02-23T00:15:04.952Z,0.00
2023-02-23T00:16:05.007Z,0.00
2023-02-23T00:17:04.921Z,0.00
2023-02-23T00:18:04.909Z,0.00
2023-02-23T00:19:04.966Z,0.00
2023-02-23T00:20:04.892Z,0.00
2023-02-23T00:21:04.884Z,0.00
2023-02-23T00:22:04.889Z,0.00
2023-02-23T00:23:04.862Z,0.00
2023-02-23T00:24:04.866Z,0.00
2023-02-23T00:25:04.835Z,0.00
2023-02-23T00:26:04.830Z,0.00
2023-02-23T00:27:04.833Z,0.00
2023-02-23T00:28:04.826Z,0.00
2023-02-23T00:29:04.812Z,0.00
2023-02-23T00:30:04.785Z,0.00
2023-02-23T00:31:04.856Z,0.00
2023-02-23T00:32:04.905Z,0.00
2023-02-23T00:33:04.776Z,0.00
2023-02-23T00:34:04.749Z,0.00
2023-02-23T00:35:04.752Z,0.00
2023-02-23T00:36:04.730Z,0.00
2023-02-23T00:37:04.731Z,0.00
2023-02-23T00:38:04.709Z,0.00
2023-02-23T00:39:04.722Z,0.00
2023-02-23T00:40:04.686Z,0.00
2023-02-23T00:41:04.674Z,0.00
2023-02-23T00:42:04.663Z,0.00
2023-02-23T00:43:04.668Z,0.00
2023-02-23T00:44:04.653Z,0.00
2023-02-23T00:45:04.656Z,0.00
2023-02-23T00:46:04.719Z,0.00
2023-02-23T00:47:04.612Z,0.00
2023-02-23T00:48:04.600Z,0.00
2023-02-23T00:49:04.605Z,0.00
2023-02-23T00:50:04.584Z,0.00
2023-02-23T00:51:04.578Z,0.00
2023-02-23T00:52:04.580Z,0.00
2023-02-23T00:53:04.553Z,0.00
2023-02-23T00:54:04.543Z,0.00
2023-02-23T00:55:04.543Z,0.00
2023-02-23T00:56:04.522Z,0.00
2023-02-23T00:57:04.510Z,0.00
2023-02-23T00:58:04.525Z,0.00
2023-02-23T00:59:04.502Z,0.00
2023-02-23T01:00:04.493Z,0.00
2023-02-23T01:01:04.562Z,0.00
2023-02-23T01:02:04.511Z,0.00
2023-02-23T01:03:04.461Z,0.00
2023-02-23T01:04:04.454Z,0.00
2023-02-23T01:05:04.430Z,0.00
2023-02-23T01:06:04.424Z,0.00
2023-02-23T01:07:04.398Z,0.00
2023-02-23T01:08:04.423Z,0.00
2023-02-23T01:09:04.373Z,0.00
2023-02-23T01:10:04.379Z,0.00
2023-02-23T01:11:04.373Z,0.00
2023-02-23T01:12:04.348Z,0.00
2023-02-23T01:13:04.339Z,0.00
2023-02-23T01:14:04.326Z,0.00
2023-02-23T01:15:04.323Z,0.00
2023-02-23T01:16:04.377Z,0.00
2023-02-23T01:17:04.318Z,0.00
2023-02-23T01:18:04.277Z,0.00
2023-02-23T01:19:04.275Z,0.00
2023-02-23T01:20:04.263Z,0.00
2023-02-23T01:21:04.246Z,0.00
2023-02-23T01:22:04.252Z,0.00
2023-02-23T01:23:04.228Z,0.00
2023-02-23T01:24:04.242Z,0.00
2023-02-23T01:25:04.203Z,0.00
2023-02-23T01:26:04.194Z,0.00
2023-02-23T01:27:04.200Z,0.00
2023-02-23T01:28:04.186Z,0.00
2023-02-23T01:29:04.177Z,0.00
2023-02-23T01:30:04.159Z,0.00
2023-02-23T01:31:04.277Z,0.00
2023-02-23T01:32:05.064Z,0.00
2023-02-23T01:33:04.152Z,0.00
2023-02-23T01:34:04.122Z,0.00
2023-02-23T01:35:04.102Z,0.00
2023-02-23T01:36:04.095Z,0.00
2023-02-23T01:37:04.115Z,0.00
2023-02-23T01:38:04.063Z,0.00
2023-02-23T01:39:04.067Z,0.00
2023-02-23T01:40:04.058Z,0.00
2023-02-23T01:41:04.044Z,0.00
2023-02-23T01:42:04.022Z,0.00
2023-02-23T01:43:04.048Z,0.00
2023-02-23T01:44:04.080Z,0.00
2023-02-23T01:45:03.997Z,0.00
2023-02-23T01:46:04.089Z,0.00
2023-02-23T01:47:03.981Z,0.00
2023-02-23T01:48:04.000Z,0.00
2023-02-23T01:49:03.972Z,0.00
2023-02-23T01:50:03.954Z,0.00
2023-02-23T01:51:03.948Z,0.00
2023-02-23T01:52:03.923Z,0.00
2023-02-23T01:53:03.936Z,0.00
2023-02-23T01:54:03.911Z,0.00
2023-02-23T01:55:03.898Z,0.00
2023-02-23T01:56:03.891Z,0.00
2023-02-23T01:57:03.871Z,0.00
2023-02-23T01:58:03.857Z,0.00
2023-02-23T01:59:03.861Z,0.00
2023-02-23T02:00:03.849Z,0.00
2023-02-23T02:01:03.829Z,0.00
2023-02-23T02:02:03.839Z,0.00
2023-02-23T02:03:03.804Z,0.00
2023-02-23T02:04:03.797Z,0.00
2023-02-23T02:05:03.834Z,0.00
2023-02-23T02:06:03.777Z,0.00
2023-02-23T02:07:03.821Z,0.00
2023-02-23T02:08:03.759Z,0.00
2023-02-23T02:09:03.756Z,0.00
2023-02-23T02:10:03.750Z,0.00
2023-02-23T02:11:03.729Z,0.00
2023-02-23T02:12:03.709Z,0.00
2023-02-23T02:13:03.707Z,0.00
2023-02-23T02:14:03.704Z,0.00
2023-02-23T02:15:11.417Z,0.00
2023-02-23T02:16:03.694Z,0.00
2023-02-23T02:17:03.662Z,0.00
2023-02-23T02:18:03.655Z,0.00
2023-02-23T02:19:03.643Z,0.00
2023-02-23T02:20:03.639Z,0.00
2023-02-23T02:21:03.650Z,0.00
2023-02-23T02:22:03.610Z,0.00
2023-02-23T02:23:03.600Z,0.00
2023-02-23T02:24:03.602Z,0.00
2023-02-23T02:25:03.663Z,0.00
2023-02-23T02:26:03.567Z,0.00
2023-02-23T02:27:03.559Z,0.00
2023-02-23T02:28:03.549Z,0.00
2023-02-23T02:29:03.534Z,0.00
2023-02-23T02:30:03.527Z,0.00
2023-02-23T02:31:03.543Z,0.00
2023-02-23T02:32:03.675Z,0.00
2023-02-23T02:33:03.482Z,0.00
2023-02-23T02:34:03.476Z,0.00
2023-02-23T02:35:03.463Z,0.00
2023-02-23T02:36:03.458Z,0.00
2023-02-23T02:37:03.475Z,0.00
2023-02-23T02:38:03.437Z,0.00
2023-02-23T02:39:03.456Z,0.00
2023-02-23T02:40:03.420Z,0.00
2023-02-23T02:41:03.408Z,0.00
2023-02-23T02:42:03.406Z,0.00
2023-02-23T02:43:03.391Z,0.00
2023-02-23T02:44:03.371Z,0.00
2023-02-23T02:45:03.386Z,0.00
2023-02-23T02:46:03.403Z,0.00
2023-02-23T02:47:03.338Z,0.00
2023-02-23T02:48:03.345Z,0.00
2023-02-23T02:49:03.316Z,0.00
2023-02-23T02:50:03.301Z,0.00
2023-02-23T02:51:03.295Z,0.00
2023-02-23T02:52:03.296Z,0.00
2023-02-23T02:53:03.304Z,0.00
2023-02-23T02:54:03.277Z,0.00
2023-02-23T02:55:03.257Z,0.00
2023-02-23T02:56:03.237Z,0.00
2023-02-23T02:57:03.237Z,0.00
2023-02-23T02:58:03.222Z,0.00
2023-02-23T02:59:03.228Z,0.00
2023-02-23T03:00:03.228Z,0.00
2023-02-23T03:01:03.194Z,0.00
2023-02-23T03:02:03.174Z,0.00
2023-02-23T03:03:03.164Z,0.00
2023-02-23T03:04:03.162Z,0.00
2023-02-23T03:05:03.244Z,0.00
2023-02-23T03:06:03.172Z,0.00
2023-02-23T03:07:03.123Z,0.00
2023-02-23T03:08:03.116Z,0.00
2023-02-23T03:09:03.127Z,0.00
2023-02-23T03:10:03.091Z,0.00
2023-02-23T03:11:03.085Z,0.00
2023-02-23T03:12:03.094Z,0.00
2023-02-23T03:13:03.074Z,0.00
2023-02-23T03:14:03.049Z,0.00
2023-02-23T03:15:03.048Z,0.00
2023-02-23T03:16:03.070Z,0.00
2023-02-23T03:17:03.021Z,0.00
2023-02-23T03:18:03.017Z,0.00
2023-02-23T03:19:03.011Z,0.00
2023-02-23T03:20:02.992Z,0.00
2023-02-23T03:21:02.981Z,0.00
2023-02-23T03:22:02.967Z,0.00
2023-02-23T03:23:02.950Z,0.00
2023-02-23T03:24:03.171Z,0.00
2023-02-23T03:25:02.962Z,0.00
2023-02-23T03:26:02.936Z,0.00
2023-02-23T03:27:02.914Z,0.00
2023-02-23T03:28:02.912Z,0.00
2023-02-23T03:29:02.894Z,0.00
2023-02-23T03:30:02.884Z,0.00
2023-02-23T03:31:02.877Z,0.00
2023-02-23T03:32:03.025Z,0.00
2023-02-23T03:33:02.868Z,0.00
2023-02-23T03:34:02.840Z,0.00
2023-02-23T03:35:02.844Z,0.00
2023-02-23T03:36:02.819Z,0.00
2023-02-23T03:37:02.824Z,0.00
2023-02-23T03:38:02.798Z,0.00
2023-02-23T03:39:02.814Z,0.00
2023-02-23T03:40:02.795Z,0.00
2023-02-23T03:41:02.855Z,0.00
2023-02-23T03:42:02.811Z,0.00
2023-02-23T03:43:02.759Z,0.00
2023-02-23T03:44:02.764Z,0.00
2023-02-23T03:45:02.761Z,0.00
2023-02-23T03:46:02.792Z,0.00
2023-02-23T03:47:02.718Z,0.00
2023-02-23T03:48:02.698Z,0.00
2023-02-23T03:49:02.681Z,0.00
2023-02-23T03:50:02.675Z,0.00
2023-02-23T03:51:02.683Z,0.00
2023-02-23T03:52:02.670Z,0.00
2023-02-23T03:53:02.652Z,0.00
2023-02-23T03:54:02.630Z,0.00
2023-02-23T03:55:02.630Z,0.00
2023-02-23T03:56:02.608Z,0.00
2023-02-23T03:57:02.623Z,0.00
2023-02-23T03:58:02.605Z,0.00
2023-02-23T03:59:02.579Z,0.00
2023-02-23T04:00:02.566Z,0.00
2023-02-23T04:01:02.561Z,0.00
2023-02-23T04:02:02.611Z,0.00
2023-02-23T04:03:02.560Z,0.00
2023-02-23T04:04:02.536Z,0.00
2023-02-23T04:05:02.538Z,0.00
2023-02-23T04:06:02.507Z,0.00
2023-02-23T04:07:02.507Z,0.00
2023-02-23T04:08:02.477Z,0.00
2023-02-23T04:09:02.488Z,0.00
2023-02-23T04:10:02.462Z,0.00
2023-02-23T04:11:02.467Z,0.00
2023-02-23T04:12:02.438Z,0.00
2023-02-23T04:13:02.446Z,0.00
2023-02-23T04:14:02.447Z,0.00
2023-02-23T04:15:02.416Z,0.00
2023-02-23T04:16:02.402Z,0.00
2023-02-23T04:17:02.394Z,0.00
2023-02-23T04:18:02.379Z,0.00
2023-02-23T04:19:02.385Z,0.00
2023-02-23T04:20:02.363Z,0.00
2023-02-23T04:21:02.408Z,0.00
2023-02-23T04:22:02.339Z,0.00
2023-02-23T04:23:02.325Z,0.00
2023-02-23T04:24:02.321Z,0.00
2023-02-23T04:25:02.333Z,0.00
2023-02-23T04:26:02.307Z,0.00
2023-02-23T04:27:02.287Z,0.00
2023-02-23T04:28:02.288Z,0.00
2023-02-23T04:29:02.411Z,0.00
2023-02-23T04:30:02.256Z,0.00
2023-02-23T04:31:02.322Z,0.00
2023-02-23T04:32:02.349Z,0.00
2023-02-23T04:33:02.242Z,0.00
2023-02-23T04:34:02.215Z,0.00
2023-02-23T04:35:02.218Z,0.00
2023-02-23T04:36:02.210Z,0.00
2023-02-23T04:37:02.189Z,0.00
2023-02-23T04:38:02.184Z,0.00
2023-02-23T04:39:02.171Z,0.00
2023-02-23T04:40:02.175Z,0.00
2023-02-23T04:41:02.141Z,0.00
2023-02-23T04:42:02.147Z,0.00
2023-02-23T04:43:02.129Z,0.00
2023-02-23T04:44:02.133Z,0.00
2023-02-23T04:45:02.187Z,0.00
2023-02-23T04:46:02.161Z,0.00
2023-02-23T04:47:02.084Z,0.00
2023-02-23T04:48:02.075Z,0.00
2023-02-23T04:49:02.076Z,0.00
2023-02-23T04:50:02.072Z,0.00
2023-02-23T04:51:02.039Z,0.00
2023-02-23T04:52:02.036Z,0.00
2023-02-23T04:53:02.013Z,0.00
2023-02-23T04:54:02.018Z,0.00
2023-02-23T04:55:02.022Z,0.00
2023-02-23T04:56:01.994Z,0.00
2023-02-23T04:57:01.994Z,0.00
2023-02-23T04:58:01.967Z,0.00
2023-02-23T04:59:01.972Z,0.00
2023-02-23T05:00:01.969Z,0.00
2023-02-23T05:01:01.973Z,0.00
2023-02-23T05:02:01.927Z,0.00
2023-02-23T05:03:01.920Z,0.00
2023-02-23T05:04:01.923Z,0.00
2023-02-23T05:05:01.974Z,0.00
2023-02-23T05:06:01.885Z,0.00
2023-02-23T05:07:01.880Z,0.00
2023-02-23T05:08:01.875Z,0.00
2023-02-23T05:09:01.864Z,0.00
2023-02-23T05:10:01.881Z,0.00
2023-02-23T05:11:01.828Z,0.00
2023-02-23T05:12:01.834Z,0.00
2023-02-23T05:13:01.850Z,0.00
2023-02-23T05:14:01.816Z,0.00
2023-02-23T05:15:01.800Z,0.00
2023-02-23T05:16:01.804Z,0.00
2023-02-23T05:17:01.793Z,0.00
2023-02-23T05:18:01.769Z,0.00
2023-02-23T05:19:01.758Z,0.00
2023-02-23T05:20:01.760Z,0.00
2023-02-23T05:21:01.739Z,0.00
2023-02-23T05:22:01.767Z,0.00
2023-02-23T05:23:01.730Z,0.00
2023-02-23T05:24:01.697Z,0.00
2023-02-23T05:25:01.693Z,0.00
2023-02-23T05:26:01.681Z,0.00
2023-02-23T05:27:01.681Z,0.00
2023-02-23T05:28:01.682Z,0.00
2023-02-23T05:29:01.653Z,0.00
2023-02-23T05:30:01.659Z,0.00
2023-02-23T05:31:01.737Z,0.00
2023-02-23T05:32:01.799Z,0.00
2023-02-23T05:33:01.634Z,0.00
2023-02-23T05:34:01.595Z,0.00
2023-02-23T05:35:01.607Z,0.00
2023-02-23T05:36:01.573Z,0.00
2023-02-23T05:37:01.576Z,0.00
2023-02-23T05:38:01.568Z,0.00
2023-02-23T05:39:01.571Z,0.00
2023-02-23T05:40:01.551Z,0.00
2023-02-23T05:41:01.526Z,0.00
2023-02-23T05:42:01.513Z,0.00
2023-02-23T05:43:01.505Z,0.00
2023-02-23T05:44:01.502Z,0.00
2023-02-23T05:45:01.472Z,0.00
2023-02-23T05:46:01.597Z,0.00
2023-02-23T05:47:01.454Z,0.00
2023-02-23T05:48:01.458Z,0.00
2023-02-23T05:49:01.463Z,0.00
2023-02-23T05:50:01.435Z,0.00
2023-02-23T05:51:01.417Z,0.00
2023-02-23T05:52:01.408Z,0.00
2023-02-23T05:53:01.405Z,0.00
2023-02-23T05:54:01.381Z,0.00
2023-02-23T05:55:01.374Z,0.00
2023-02-23T05:56:01.377Z,0.00
2023-02-23T05:57:01.924Z,0.00
2023-02-23T05:58:01.336Z,0.00
2023-02-23T05:59:01.344Z,0.00
2023-02-23T06:00:01.327Z,0.00
2023-02-23T06:01:01.303Z,0.00
2023-02-23T06:02:01.292Z,0.00
2023-02-23T06:03:01.311Z,0.00
2023-02-23T06:04:01.385Z,0.00
2023-02-23T06:05:01.306Z,5.62
2023-02-23T06:06:01.254Z,5.62
2023-02-23T06:07:01.239Z,5.62
2023-02-23T06:08:01.237Z,5.62
2023-02-23T06:09:01.222Z,5.62
2023-02-23T06:10:01.229Z,5.62
2023-02-23T06:11:01.236Z,5.62
2023-02-23T06:12:01.184Z,5.62
2023-02-23T06:13:01.190Z,11.25
2023-02-23T06:14:01.174Z,11.25
2023-02-23T06:15:01.172Z,11.25
2023-02-23T06:16:01.214Z,11.25
2023-02-23T06:17:01.191Z,11.25
2023-02-23T06:18:01.138Z,11.25
2023-02-23T06:19:01.140Z,11.25
2023-02-23T06:20:01.114Z,16.88
2023-02-23T06:21:01.182Z,16.88
2023-02-23T06:22:01.101Z,16.88
2023-02-23T06:23:01.071Z,16.88
2023-02-23T06:24:01.101Z,16.88
2023-02-23T06:25:01.050Z,22.50
2023-02-23T06:26:01.056Z,22.50
2023-02-23T06:27:01.051Z,22.50
2023-02-23T06:28:01.065Z,22.50
2023-02-23T06:29:01.008Z,22.50
2023-02-23T06:30:00.996Z,28.12
2023-02-23T06:31:01.141Z,28.12
2023-02-23T06:32:01.282Z,28.12
2023-02-23T06:33:00.977Z,28.12
2023-02-23T06:34:00.964Z,33.75
2023-02-23T06:35:00.982Z,33.75
2023-02-23T06:36:00.942Z,33.75
2023-02-23T06:37:00.952Z,33.75
2023-02-23T06:38:00.922Z,33.75
2023-02-23T06:39:00.917Z,39.38
2023-02-23T06:40:00.890Z,39.38
2023-02-23T06:41:00.908Z,39.38
2023-02-23T06:42:00.892Z,39.38
2023-02-23T06:43:00.868Z,39.38
2023-02-23T06:44:00.866Z,45.00
2023-02-23T06:45:00.845Z,45.00
2023-02-23T06:46:00.839Z,45.00
2023-02-23T06:47:00.822Z,45.00
2023-02-23T06:48:00.844Z,45.00
2023-02-23T06:49:00.802Z,50.62
2023-02-23T06:50:00.804Z,50.62
2023-02-23T06:51:00.792Z,50.62
2023-02-23T06:52:00.774Z,50.62
2023-02-23T06:53:00.812Z,56.25
2023-02-23T06:54:00.752Z,56.25
2023-02-23T06:55:00.752Z,56.25
2023-02-23T06:56:00.729Z,61.88
2023-02-23T06:57:00.728Z,61.88
2023-02-23T06:58:00.727Z,61.88
2023-02-23T06:59:00.703Z,61.88
2023-02-23T07:00:00.710Z,67.50
2023-02-23T07:01:00.709Z,67.50
2023-02-23T07:02:00.694Z,67.50
2023-02-23T07:03:00.660Z,67.50
2023-02-23T07:04:00.723Z,73.12
2023-02-23T07:05:00.649Z,73.12
2023-02-23T07:06:00.624Z,73.12
2023-02-23T07:07:00.624Z,73.12
2023-02-23T07:08:00.606Z,73.12
2023-02-23T07:09:00.685Z,78.75
2023-02-23T07:10:00.576Z,78.75
2023-02-23T07:11:00.567Z,78.75
2023-02-23T07:12:00.567Z,78.75
2023-02-23T07:13:00.559Z,84.38
2023-02-23T07:14:00.541Z,84.38
2023-02-23T07:15:00.541Z,84.38
2023-02-23T07:16:00.584Z,90.00
2023-02-23T07:17:00.512Z,90.00
2023-02-23T07:18:00.503Z,90.00
2023-02-23T07:19:00.470Z,95.62
2023-02-23T07:20:00.482Z,95.62
2023-02-23T07:21:00.474Z,95.62
2023-02-23T07:22:00.454Z,101.25
2023-02-23T07:23:00.447Z,101.25
2023-02-23T07:24:00.437Z,101.25
2023-02-23T07:25:00.436Z,101.25
2023-02-23T07:26:00.411Z,106.88
2023-02-23T07:27:00.384Z,106.88
2023-02-23T07:28:00.393Z,106.88
2023-02-23T07:29:00.379Z,106.88
2023-02-23T07:30:00.374Z,112.50
2023-02-23T07:31:00.387Z,112.50
2023-02-23T07:32:00.524Z,112.50
2023-02-23T07:33:00.349Z,112.50
2023-02-23T07:34:00.306Z,118.12
2023-02-23T07:35:00.312Z,118.12
2023-02-23T07:36:00.299Z,118.12
2023-02-23T07:37:00.300Z,118.12
2023-02-23T07:38:00.278Z,118.12
2023-02-23T07:39:00.264Z,118.12
2023-02-23T07:40:01.352Z,123.75
2023-02-23T07:41:00.360Z,123.75
2023-02-23T07:42:00.244Z,123.75
2023-02-23T07:43:00.238Z,123.75
2023-02-23T07:44:00.207Z,123.75
2023-02-23T07:45:00.219Z,123.75
2023-02-23T07:46:00.271Z,129.38
2023-02-23T07:47:00.211Z,129.38
2023-02-23T07:48:00.163Z,129.38
2023-02-23T07:49:00.170Z,129.38
2023-02-23T07:50:00.174Z,129.38
2023-02-23T07:51:00.134Z,135.00
2023-02-23T07:52:00.133Z,135.00
2023-02-23T07:53:00.122Z,135.00
2023-02-23T07:54:00.118Z,135.00
2023-02-23T07:55:00.114Z,135.00
2023-02-23T07:56:00.110Z,135.00
2023-02-23T07:57:00.138Z,135.00
2023-02-23T07:58:00.103Z,135.00
2023-02-23T07:59:00.048Z,135.00
2023-02-23T08:00:00.061Z,135.00
2023-02-23T08:01:00.100Z,135.00
2023-02-23T08:02:00.023Z,140.62
2023-02-23T08:03:00.029Z,140.62
2023-02-23T08:04:00.028Z,140.62
2023-02-23T08:05:00.000Z,140.62
2023-02-23T08:05:59.996Z,140.62
2023-02-23T08:06:59.970Z,140.62
2023-02-23T08:07:59.957Z,140.62
2023-02-23T08:08:59.951Z,140.62
2023-02-23T08:09:59.943Z,140.62
2023-02-23T08:10:59.934Z,146.25
2023-02-23T08:11:59.919Z,146.25
2023-02-23T08:12:59.984Z,146.25
2023-02-23T08:13:59.908Z,146.25
2023-02-23T08:14:59.893Z,146.25
2023-02-23T08:15:59.903Z,146.25
2023-02-23T08:16:59.891Z,146.25
2023-02-23T08:17:59.851Z,146.25
2023-02-23T08:18:59.840Z,146.25
2023-02-23T08:19:59.837Z,146.25
2023-02-23T08:20:59.861Z,151.88
2023-02-23T08:21:59.819Z,151.88
2023-02-23T08:22:59.796Z,151.88
2023-02-23T08:23:59.800Z,151.88
2023-02-23T08:24:59.803Z,151.88
2023-02-23T08:25:59.794Z,157.50
2023-02-23T08:26:59.760Z,157.50
2023-02-23T08:27:59.749Z,157.50
2023-02-23T08:28:59.838Z,163.12
2023-02-23T08:29:59.729Z,163.12
2023-02-23T08:30:59.832Z,168.75
2023-02-23T08:31:59.914Z,168.75
2023-02-23T08:32:59.696Z,174.38
2023-02-23T08:33:59.702Z,174.38
2023-02-23T08:34:59.680Z,174.38
2023-02-23T08:35:59.674Z,174.38
2023-02-23T08:36:59.646Z,174.38
2023-02-23T08:37:59.652Z,174.38
2023-02-23T08:38:59.656Z,174.38
2023-02-23T08:39:59.629Z,174.38
2023-02-23T08:40:59.607Z,174.38
2023-02-23T08:41:59.604Z,174.38
2023-02-23T08:42:59.603Z,174.38
2023-02-23T08:43:59.577Z,174.38
2023-02-23T08:44:59.601Z,180.00
2023-02-23T08:45:59.660Z,180.00
2023-02-23T08:46:59.538Z,180.00
2023-02-23T08:47:59.546Z,180.00
2023-02-23T08:48:59.551Z,180.00
2023-02-23T08:49:59.515Z,180.00
2023-02-23T08:50:59.520Z,180.00
2023-02-23T08:51:59.484Z,180.00
2023-02-23T08:52:59.475Z,185.62
2023-02-23T08:53:59.488Z,185.62
2023-02-23T08:54:59.460Z,185.62
2023-02-23T08:55:59.473Z,185.62
2023-02-23T08:56:59.446Z,191.25
2023-02-23T08:57:59.424Z,191.25
2023-02-23T08:58:59.406Z,191.25
2023-02-23T08:59:59.402Z,191.25
2023-02-23T09:00:59.421Z,196.88
2023-02-23T09:01:59.400Z,196.88
2023-02-23T09:02:59.378Z,196.88
2023-02-23T09:03:59.361Z,196.88
2023-02-23T09:04:59.351Z,202.50
2023-02-23T09:05:59.333Z,202.50
2023-02-23T09:06:59.338Z,202.50
2023-02-23T09:07:59.327Z,202.50
2023-02-23T09:08:59.307Z,202.50
2023-02-23T09:09:59.298Z,208.12
2023-02-23T09:10:59.277Z,208.12
2023-02-23T09:12:00.052Z,208.12
2023-02-23T09:12:59.252Z,208.12
2023-02-23T09:13:59.274Z,208.12
2023-02-23T09:14:59.238Z,213.75
2023-02-23T09:15:59.385Z,213.75
2023-02-23T09:16:59.539Z,219.38
2023-02-23T09:17:59.210Z,219.38
2023-02-23T09:18:59.218Z,225.00
2023-02-23T09:19:59.214Z,225.00
2023-02-23T09:20:59.188Z,230.62
2023-02-23T09:21:59.163Z,230.62
2023-02-23T09:22:59.167Z,236.25
2023-02-23T09:23:59.152Z,241.88
2023-02-23T09:24:59.184Z,241.88
2023-02-23T09:25:59.172Z,241.88
2023-02-23T09:26:59.117Z,247.50
2023-02-23T09:27:59.122Z,241.88
2023-02-23T09:28:59.104Z,247.50
2023-02-23T09:29:59.091Z,247.50
2023-02-23T09:30:59.153Z,253.12
2023-02-23T09:31:59.204Z,253.12
2023-02-23T09:32:59.066Z,253.12
2023-02-23T09:33:59.036Z,258.75
2023-02-23T09:34:59.021Z,258.75
2023-02-23T09:35:59.035Z,264.38
2023-02-23T09:36:59.010Z,264.38
2023-02-23T09:37:59.011Z,264.38
2023-02-23T09:38:59.004Z,270.00
2023-02-23T09:39:58.984Z,270.00
2023-02-23T09:40:58.972Z,275.62
2023-02-23T09:41:58.963Z,275.62
2023-02-23T09:42:58.938Z,281.25
2023-02-23T09:43:58.937Z,281.25
2023-02-23T09:44:58.913Z,281.25
2023-02-23T09:45:58.959Z,286.88
2023-02-23T09:46:58.899Z,286.88
2023-02-23T09:47:59.786Z,286.88
2023-02-23T09:48:58.913Z,286.88
2023-02-23T09:49:58.896Z,286.88
2023-02-23T09:50:58.856Z,286.88
2023-02-23T09:51:58.857Z,281.25
2023-02-23T09:52:59.661Z,281.25
2023-02-23T09:53:58.834Z,281.25
2023-02-23T09:54:58.833Z,281.25
2023-02-23T09:55:58.816Z,281.25
2023-02-23T09:56:58.795Z,281.25
2023-02-23T09:57:58.788Z,281.25
2023-02-23T09:58:58.787Z,286.88
2023-02-23T09:59:58.770Z,286.88
2023-02-23T10:00:58.749Z,292.50
2023-02-23T10:01:58.819Z,292.50
2023-02-23T10:02:58.754Z,298.12
2023-02-23T10:03:58.749Z,303.75
2023-02-23T10:04:58.809Z,309.38
2023-02-23T10:05:58.693Z,309.38
2023-02-23T10:06:58.699Z,315.00
2023-02-23T10:07:58.689Z,315.00
2023-02-23T10:08:58.673Z,320.62
2023-02-23T10:09:58.766Z,320.62
2023-02-23T10:10:58.652Z,320.62
2023-02-23T10:11:58.661Z,320.62
2023-02-23T10:12:58.642Z,320.62
2023-02-23T10:13:58.624Z,320.62
2023-02-23T10:14:58.609Z,315.00
2023-02-23T10:15:58.611Z,315.00
2023-02-23T10:16:58.577Z,315.00
2023-02-23T10:17:58.564Z,315.00
2023-02-23T10:18:58.589Z,309.38
2023-02-23T10:19:58.547Z,309.38
2023-02-23T10:20:58.569Z,309.38
2023-02-23T10:21:58.538Z,309.38
2023-02-23T10:22:58.518Z,309.38
2023-02-23T10:23:58.509Z,303.75
2023-02-23T10:24:58.515Z,303.75
2023-02-23T10:25:58.479Z,303.75
2023-02-23T10:26:58.484Z,303.75
2023-02-23T10:27:58.482Z,303.75
2023-02-23T10:28:58.469Z,303.75
2023-02-23T10:29:58.468Z,303.75
2023-02-23T10:30:58.587Z,309.38
2023-02-23T10:31:58.537Z,315.00
2023-02-23T10:32:58.406Z,315.00
2023-02-23T10:33:58.397Z,320.62
2023-02-23T10:34:58.396Z,326.25
2023-02-23T10:36:12.601Z,331.88
2023-02-23T10:36:59.421Z,331.88
2023-02-23T10:37:58.359Z,331.88
2023-02-23T10:38:58.354Z,337.50
2023-02-23T10:39:58.337Z,331.88
2023-02-23T10:40:58.321Z,337.50
2023-02-23T10:41:58.319Z,337.50
2023-02-23T10:42:58.320Z,337.50
2023-02-23T10:44:02.605Z,337.50
2023-02-23T10:44:59.279Z,331.88
2023-02-23T10:45:58.269Z,337.50
2023-02-23T10:46:58.274Z,337.50
2023-02-23T10:47:58.253Z,337.50
2023-02-23T10:48:58.248Z,337.50
2023-02-23T10:49:58.230Z,337.50
2023-02-23T10:50:58.218Z,337.50
2023-02-23T10:51:58.254Z,331.88
2023-02-23T10:52:58.215Z,331.88
2023-02-23T10:54:05.012Z,331.88
2023-02-23T10:54:59.168Z,331.88
2023-02-23T10:55:58.169Z,331.88
2023-02-23T10:56:58.153Z,331.88
2023-02-23T10:57:58.161Z,343.12
2023-02-23T10:58:58.146Z,348.75
2023-02-23T10:59:58.125Z,354.38
2023-02-23T11:00:58.121Z,371.25
2023-02-23T11:02:02.426Z,388.12
2023-02-23T11:02:58.108Z,399.38
2023-02-23T11:04:06.027Z,405.00
2023-02-23T11:04:59.175Z,405.00
2023-02-23T11:05:58.072Z,399.38
2023-02-23T11:06:58.048Z,393.75
2023-02-23T11:07:58.043Z,388.12
2023-02-23T11:08:58.047Z,388.12
2023-02-23T11:09:58.048Z,388.12
2023-02-23T11:10:58.014Z,371.25
2023-02-23T11:11:57.996Z,371.25
2023-02-23T11:12:58.000Z,365.62
2023-02-23T11:13:57.978Z,360.00
2023-02-23T11:14:57.965Z,360.00
2023-02-23T11:15:57.990Z,360.00
2023-02-23T11:16:57.937Z,360.00
2023-02-23T11:17:57.962Z,365.62
2023-02-23T11:18:57.914Z,371.25
2023-02-23T11:19:57.911Z,376.88
2023-02-23T11:20:57.889Z,388.12
2023-02-23T11:21:57.889Z,388.12
2023-02-23T11:23:03.571Z,393.75
2023-02-23T11:23:58.877Z,393.75
2023-02-23T11:24:57.905Z,393.75
2023-02-23T11:25:57.854Z,393.75
2023-02-23T11:26:57.872Z,399.38
2023-02-23T11:27:57.812Z,399.38
2023-02-23T11:28:57.809Z,405.00
2023-02-23T11:29:57.797Z,405.00
2023-02-23T11:30:57.880Z,405.00
2023-02-23T11:31:57.876Z,410.62
2023-02-23T11:32:57.775Z,410.62
2023-02-23T11:33:57.754Z,416.25
2023-02-23T11:34:57.736Z,416.25
2023-02-23T11:35:57.733Z,416.25
2023-02-23T11:36:57.726Z,410.62
2023-02-23T11:37:57.701Z,410.62
2023-02-23T11:38:57.710Z,405.00
2023-02-23T11:39:57.681Z,399.38
2023-02-23T11:40:57.696Z,388.12
2023-02-23T11:41:57.688Z,382.50
2023-02-23T11:42:57.659Z,371.25
2023-02-23T11:43:57.658Z,365.62
2023-02-23T11:44:57.730Z,360.00
2023-02-23T11:45:57.705Z,354.38
2023-02-23T11:46:57.668Z,348.75
2023-02-23T11:47:57.596Z,348.75
2023-02-23T11:48:57.611Z,343.12
2023-02-23T11:49:57.595Z,343.12
2023-02-23T11:50:57.568Z,343.12
2023-02-23T11:51:57.563Z,348.75
2023-02-23T11:52:57.576Z,343.12
2023-02-23T11:53:57.546Z,343.12
2023-02-23T11:54:57.555Z,343.12
2023-02-23T11:55:57.533Z,337.50
2023-02-23T11:57:06.364Z,337.50
2023-02-23T11:58:05.033Z,337.50
2023-02-23T11:59:05.012Z,337.50
2023-02-23T12:00:06.386Z,337.50
2023-02-23T12:00:57.465Z,331.88
2023-02-23T12:01:57.453Z,331.88
2023-02-23T12:02:57.518Z,326.25
2023-02-23T12:03:57.453Z,326.25
2023-02-23T12:04:58.202Z,326.25
2023-02-23T12:05:57.403Z,320.62
2023-02-23T12:06:57.455Z,320.62
2023-02-23T12:07:57.404Z,320.62
2023-02-23T12:08:57.382Z,320.62
2023-02-23T12:09:57.450Z,326.25
2023-02-23T12:10:57.431Z,326.25
2023-02-23T12:11:57.358Z,326.25
2023-02-23T12:12:57.354Z,326.25
2023-02-23T12:13:57.352Z,326.25
2023-02-23T12:14:57.503Z,326.25
2023-02-23T12:15:57.316Z,331.88
2023-02-23T12:16:57.318Z,331.88
2023-02-23T12:17:57.283Z,337.50
2023-02-23T12:18:57.289Z,337.50
2023-02-23T12:19:57.287Z,337.50
2023-02-23T12:20:57.261Z,337.50
2023-02-23T12:21:57.271Z,337.50
2023-02-23T12:22:57.228Z,337.50
2023-02-23T12:23:57.212Z,331.88
2023-02-23T12:24:57.226Z,331.88
2023-02-23T12:25:57.218Z,326.25
2023-02-23T12:26:57.202Z,315.00
2023-02-23T12:27:57.198Z,315.00
2023-02-23T12:28:57.190Z,309.38
2023-02-23T12:29:57.189Z,303.75
2023-02-23T12:30:57.230Z,298.12
2023-02-23T12:31:57.197Z,298.12
2023-02-23T12:32:57.122Z,292.50
2023-02-23T12:33:57.152Z,286.88
2023-02-23T12:34:57.101Z,292.50
2023-02-23T12:35:57.113Z,292.50
2023-02-23T12:36:57.106Z,298.12
2023-02-23T12:37:57.088Z,303.75
2023-02-23T12:38:57.082Z,309.38
2023-02-23T12:39:57.046Z,315.00
2023-02-23T12:40:57.035Z,315.00
2023-02-23T12:41:57.020Z,320.62
2023-02-23T12:42:57.016Z,326.25
2023-02-23T12:43:57.006Z,331.88
2023-02-23T12:44:57.000Z,331.88
2023-02-23T12:45:57.032Z,337.50
2023-02-23T12:46:56.971Z,331.88
2023-02-23T12:47:56.978Z,331.88
2023-02-23T12:48:56.944Z,331.88
2023-02-23T12:49:56.930Z,326.25
2023-02-23T12:50:56.921Z,326.25
2023-02-23T12:51:56.913Z,320.62
2023-02-23T12:52:56.888Z,315.00